Time;durP1;ratioP1;P1;durP2;ratioP2;P2;SDS_P1;SDS_P2;PMS_P1;PMS_P2;Temp;Humidity;BMP_temperature;BMP_pressure;BME280_temperature;BME280_humidity;BME280_pressure;Samples;Min_cycle;Max_cycle;Signal;HPM_P1;HPM_P2
2022/12/28 00:01:07;;;;;;;10.77;6.43;;;21.00;72.90;;;;;;5025110;28;20203;-41
2022/12/28 00:03:34;;;;;;;8.25;6.82;;;21.10;72.80;;;;;;5029352;28;20212;-40
2022/12/28 00:06:01;;;;;;;10.27;7.15;;;21.20;72.60;;;;;;5028544;28;20648;-40
2022/12/28 00:08:27;;;;;;;9.82;7.20;;;21.20;72.30;;;;;;5027761;28;20197;-43
2022/12/28 00:11:00;;;;;;;11.77;10.63;;;21.30;72.10;;;;;;5018887;28;20212;-41
2022/12/28 00:13:27;;;;;;;9.80;6.40;;;21.30;71.90;;;;;;5027150;28;20196;-40
2022/12/28 00:15:55;;;;;;;8.70;6.75;;;21.30;71.50;;;;;;5026303;28;20201;-40
2022/12/28 00:18:21;;;;;;;10.55;6.85;;;21.40;71.50;;;;;;5031261;28;20487;-39
2022/12/28 00:20:56;;;;;;;7.85;6.28;;;21.40;71.40;;;;;;5030115;28;20708;-40
2022/12/28 00:23:23;;;;;;;10.88;6.55;;;21.40;71.30;;;;;;5028128;28;20204;-40
2022/12/28 00:25:49;;;;;;;10.13;7.05;;;21.40;71.30;;;;;;5035418;28;20606;-40
2022/12/28 00:28:16;;;;;;;7.03;6.32;;;21.30;71.30;;;;;;5040070;28;20540;-40
2022/12/28 00:30:43;;;;;;;8.18;5.72;;;21.30;71.30;;;;;;5027626;28;20216;-40
2022/12/28 00:33:11;;;;;;;11.80;6.13;;;21.30;71.30;;;;;;5031074;28;20197;-41
2022/12/28 00:35:37;;;;;;;9.52;7.13;;;21.20;71.30;;;;;;5028696;28;20204;-40
2022/12/28 00:38:04;;;;;;;9.30;6.65;;;21.10;71.20;;;;;;5023860;28;20204;-40
2022/12/28 00:40:31;;;;;;;8.52;6.70;;;21.10;71.20;;;;;;5025924;28;20203;-40
2022/12/28 00:42:57;;;;;;;7.10;6.35;;;21.20;71.30;;;;;;5032177;28;20199;-40
2022/12/28 00:45:24;;;;;;;10.45;8.25;;;21.20;71.00;;;;;;5024193;28;20228;-40
2022/12/28 00:47:51;;;;;;;8.18;6.82;;;21.20;70.80;;;;;;5022621;28;20208;-40
2022/12/28 00:50:19;;;;;;;12.00;8.05;;;21.20;70.70;;;;;;5027000;28;20196;-40
2022/12/28 00:52:45;;;;;;;8.80;6.78;;;21.20;70.70;;;;;;5026194;28;20201;-40
2022/12/28 00:55:12;;;;;;;6.22;5.57;;;21.20;70.70;;;;;;5020357;28;20205;-40
2022/12/28 00:57:39;;;;;;;8.90;7.57;;;21.20;70.60;;;;;;5029844;28;20410;-39
2022/12/28 01:00:07;;;;;;;9.98;7.65;;;21.20;70.50;;;;;;5031911;28;20270;-41
2022/12/28 01:02:34;;;;;;;11.35;6.57;;;21.30;70.40;;;;;;5025433;28;20201;-40
2022/12/28 01:05:01;;;;;;;9.13;7.88;;;21.30;70.30;;;;;;5027543;28;20600;-41
2022/12/28 01:07:29;;;;;;;9.20;6.70;;;21.30;70.30;;;;;;5028098;28;20595;-42
2022/12/28 01:09:55;;;;;;;7.30;5.55;;;21.30;70.30;;;;;;5029972;28;20203;-40
2022/12/28 01:12:22;;;;;;;8.57;6.70;;;21.20;70.20;;;;;;5023393;28;20195;-40
2022/12/28 01:14:49;;;;;;;7.63;6.53;;;21.20;70.20;;;;;;5030348;28;20284;-42
2022/12/28 01:17:15;;;;;;;6.55;5.95;;;21.20;70.30;;;;;;5018529;28;20205;-40
2022/12/28 01:19:42;;;;;;;9.10;7.47;;;21.20;70.30;;;;;;5037229;28;20225;-40
2022/12/28 01:22:09;;;;;;;10.93;7.47;;;21.10;70.30;;;;;;5029410;28;20250;-40
2022/12/28 01:24:37;;;;;;;7.88;4.97;;;21.10;70.40;;;;;;5024474;28;20216;-41
2022/12/28 01:27:03;;;;;;;8.32;6.05;;;21.00;70.30;;;;;;5028111;28;20209;-40
2022/12/28 01:29:31;;;;;;;7.70;5.72;;;21.00;70.30;;;;;;5027689;28;20668;-43
2022/12/28 01:31:58;;;;;;;7.20;6.35;;;21.10;70.20;;;;;;5031139;28;20676;-40
2022/12/28 01:34:24;;;;;;;11.13;8.43;;;21.10;70.10;;;;;;5030097;28;20231;-40
2022/12/28 01:36:51;;;;;;;9.75;5.60;;;21.10;70.00;;;;;;5029166;28;20211;-40
2022/12/28 01:39:18;;;;;;;6.38;4.88;;;21.10;70.00;;;;;;5023736;28;20688;-42
2022/12/28 01:41:46;;;;;;;9.32;6.70;;;21.10;70.10;;;;;;5018814;28;20687;-40
2022/12/28 01:44:43;;;;;;;10.13;8.88;;;21.10;69.90;;;;;;5025380;28;20642;-40
2022/12/28 01:47:15;;;;;;;7.13;5.78;;;21.10;69.70;;;;;;5034986;28;20935;-41
2022/12/28 01:49:47;;;;;;;9.50;6.60;;;21.20;69.70;;;;;;5034486;28;20193;-42
2022/12/28 01:52:18;;;;;;;6.95;6.22;;;21.10;69.60;;;;;;5020996;28;20203;-40
2022/12/28 01:54:47;;;;;;;6.93;6.22;;;21.10;69.60;;;;;;5022106;28;20204;-40
2022/12/28 01:57:17;;;;;;;9.38;6.15;;;21.10;69.60;;;;;;5035354;28;20201;-41
2022/12/28 01:59:47;;;;;;;8.13;6.55;;;21.10;69.70;;;;;;5023717;28;20258;-40
2022/12/28 02:02:15;;;;;;;7.65;5.10;;;21.00;69.60;;;;;;5033500;28;20224;-40
2022/12/28 02:04:41;;;;;;;7.15;5.45;;;21.00;69.70;;;;;;5038585;28;20224;-40
2022/12/28 02:07:09;;;;;;;6.18;3.95;;;21.00;69.80;;;;;;5031624;28;20193;-40
2022/12/28 02:09:39;;;;;;;7.22;5.55;;;21.00;69.80;;;;;;5025896;28;20200;-41
2022/12/28 02:12:07;;;;;;;8.80;5.82;;;21.00;69.70;;;;;;5025133;28;20195;-40
2022/12/28 02:14:36;;;;;;;7.22;5.85;;;21.00;69.60;;;;;;5026312;28;20703;-41
2022/12/28 02:17:02;;;;;;;6.93;6.22;;;21.00;69.40;;;;;;5023449;28;20201;-39
2022/12/28 02:19:36;;;;;;;6.60;5.03;;;21.10;69.50;;;;;;5032869;28;20217;-40
2022/12/28 02:22:19;;;;;;;12.25;8.38;;;21.00;69.30;;;;;;5034128;28;20656;-40
2022/12/28 02:25:06;;;;;;;10.13;9.07;;;21.00;69.40;;;;;;5022173;28;20230;-41
2022/12/28 02:27:47;;;;;;;8.05;7.10;;;21.10;69.40;;;;;;5025045;28;20673;-40
2022/12/28 02:30:16;;;;;;;7.45;6.20;;;21.10;69.20;;;;;;5033903;28;20667;-42
2022/12/28 02:32:54;;;;;;;5.32;4.85;;;21.10;69.20;;;;;;5039129;28;20198;-40
2022/12/28 02:35:29;;;;;;;6.25;5.55;;;21.10;69.20;;;;;;5035451;28;20663;-41
2022/12/28 02:37:59;;;;;;;9.20;6.03;;;21.10;69.30;;;;;;5022644;28;20731;-40
2022/12/28 02:40:30;;;;;;;4.72;3.45;;;21.00;69.20;;;;;;5027080;28;21959;-40
2022/12/28 02:42:56;;;;;;;5.72;4.82;;;21.00;69.30;;;;;;5031276;28;20214;-41
2022/12/28 02:51:24;;;;;;;6.13;4.38;;;20.90;69.30;;;;;;5030825;28;20254;-40
2022/12/28 02:54:10;;;;;;;6.47;4.72;;;20.90;69.40;;;;;;5025372;28;20198;-40
2022/12/28 02:56:45;;;;;;;9.73;5.15;;;20.90;69.30;;;;;;5031142;28;20231;-40
2022/12/28 02:59:26;;;;;;;6.32;5.55;;;20.90;69.10;;;;;;5024330;28;20198;-40
2022/12/28 03:02:18;;;;;;;6.00;4.55;;;21.00;69.20;;;;;;5027101;28;20189;-40
2022/12/28 03:05:05;;;;;;;6.20;4.95;;;21.00;69.20;;;;;;5041081;28;20672;-41
2022/12/28 03:10:28;;;;;;;6.75;4.18;;;20.90;69.10;;;;;;5034675;28;20595;-40
2022/12/28 03:12:59;;;;;;;6.07;5.50;;;20.90;69.20;;;;;;5035021;28;20200;-40
2022/12/28 03:15:29;;;;;;;6.22;5.63;;;20.80;70.00;;;;;;5031557;28;20207;-39
2022/12/28 03:31:49;;;;;;;4.57;4.05;;;20.90;68.90;;;;;;5025037;28;20232;-39
2022/12/28 03:34:17;;;;;;;5.45;4.90;;;20.90;69.00;;;;;;5025471;28;20217;-41
2022/12/28 03:36:52;;;;;;;5.65;5.15;;;20.80;68.90;;;;;;5036091;28;20210;-40
2022/12/28 03:39:30;;;;;;;4.18;3.50;;;20.80;69.00;;;;;;5027039;28;20204;-40
2022/12/28 03:44:50;;;;;;;4.70;3.75;;;20.80;69.10;;;;;;5028476;28;20253;-41
2022/12/28 03:47:18;;;;;;;5.00;4.50;;;20.90;69.00;;;;;;5030687;28;20675;-39
2022/12/28 03:49:46;;;;;;;3.65;3.35;;;20.90;68.80;;;;;;5027276;28;20199;-40
2022/12/28 03:52:13;;;;;;;4.00;3.47;;;20.80;68.80;;;;;;5034963;28;20197;-40
2022/12/28 03:54:40;;;;;;;5.78;5.28;;;20.90;68.90;;;;;;5019461;28;20701;-40
2022/12/28 03:57:07;;;;;;;3.70;3.40;;;20.80;68.80;;;;;;5025902;28;20212;-39
2022/12/28 03:59:35;;;;;;;5.13;4.63;;;20.80;68.90;;;;;;5025196;28;20207;-42
2022/12/28 04:02:01;;;;;;;6.95;5.60;;;20.70;68.80;;;;;;5026102;28;20227;-40
2022/12/28 04:04:28;;;;;;;7.85;7.05;;;20.70;68.90;;;;;;5029501;28;20207;-43
2022/12/28 04:06:56;;;;;;;6.68;6.05;;;20.70;69.00;;;;;;5037366;28;20697;-40
2022/12/28 04:09:23;;;;;;;6.28;5.70;;;20.80;68.90;;;;;;5019975;28;20196;-39
2022/12/28 04:11:49;;;;;;;4.85;3.03;;;20.80;68.80;;;;;;5030051;28;20285;-40
2022/12/28 04:14:16;;;;;;;5.53;3.85;;;20.80;68.70;;;;;;5029441;28;20204;-42
2022/12/28 04:16:43;;;;;;;4.97;3.38;;;20.90;68.80;;;;;;5020630;28;20195;-41
2022/12/28 04:19:09;;;;;;;3.05;2.75;;;20.80;68.70;;;;;;5028452;28;20207;-39
2022/12/28 04:21:36;;;;;;;6.80;5.25;;;20.80;68.80;;;;;;5029239;28;20278;-40
2022/12/28 04:24:04;;;;;;;4.15;3.78;;;20.70;68.70;;;;;;5023576;28;20215;-41
2022/12/28 04:26:31;;;;;;;4.95;4.43;;;20.70;68.80;;;;;;5029082;28;20227;-40
2022/12/28 04:29:00;;;;;;;3.55;3.25;;;20.70;68.90;;;;;;5030963;28;20601;-40
2022/12/28 04:31:28;;;;;;;5.43;4.95;;;20.70;68.80;;;;;;5025204;28;20224;-40
2022/12/28 04:33:56;;;;;;;3.58;2.40;;;20.80;68.80;;;;;;5028291;28;20542;-40
2022/12/28 04:36:24;;;;;;;4.60;3.58;;;20.80;68.60;;;;;;5025666;28;20208;-40
2022/12/28 04:38:51;;;;;;;5.45;2.90;;;20.80;68.70;;;;;;5025154;28;20674;-41
2022/12/28 04:41:19;;;;;;;3.35;3.05;;;20.80;68.60;;;;;;5022473;28;20203;-40
2022/12/28 04:43:46;;;;;;;4.10;3.00;;;20.70;68.60;;;;;;5033756;28;20534;-40
2022/12/28 04:46:14;;;;;;;4.13;3.40;;;20.70;68.70;;;;;;5027291;28;20221;-39
2022/12/28 04:48:41;;;;;;;7.07;6.40;;;20.70;68.70;;;;;;5032708;28;20192;-40
2022/12/28 04:51:10;;;;;;;3.35;2.67;;;20.60;68.60;;;;;;5032445;28;20201;-40
2022/12/28 04:53:37;;;;;;;3.28;2.97;;;20.70;68.80;;;;;;5025277;28;20224;-40
2022/12/28 04:56:05;;;;;;;3.33;2.58;;;20.60;68.70;;;;;;5027348;28;20201;-40
2022/12/28 04:58:33;;;;;;;3.42;2.63;;;20.60;68.80;;;;;;5027034;28;20651;-39
2022/12/28 05:01:04;;;;;;;3.10;2.80;;;20.70;68.70;;;;;;5030957;28;20197;-40
2022/12/28 05:03:31;;;;;;;3.00;2.80;;;20.80;68.30;;;;;;5019065;28;20198;-40
2022/12/28 05:06:01;;;;;;;2.60;2.40;;;20.90;68.20;;;;;;5028935;28;20243;-42
2022/12/28 05:08:27;;;;;;;3.85;2.60;;;20.90;68.10;;;;;;5032556;28;20250;-43
2022/12/28 05:10:54;;;;;;;4.75;3.10;;;20.90;68.10;;;;;;5027109;28;20658;-40
2022/12/28 05:13:21;;;;;;;2.67;2.47;;;21.00;68.10;;;;;;5030183;28;20652;-40
2022/12/28 05:15:49;;;;;;;3.50;2.22;;;21.00;67.70;;;;;;5028542;28;20208;-39
2022/12/28 05:18:15;;;;;;;3.63;2.42;;;21.10;67.60;;;;;;5027387;28;20208;-40
2022/12/28 05:20:42;;;;;;;2.97;2.67;;;21.20;67.40;;;;;;5035543;28;20224;-40
2022/12/28 05:23:09;;;;;;;3.95;2.42;;;21.30;67.10;;;;;;5032196;28;20195;-40
2022/12/28 05:25:35;;;;;;;6.07;5.57;;;21.40;67.10;;;;;;5038157;28;20588;-42
2022/12/28 05:28:02;;;;;;;2.70;2.40;;;21.40;66.80;;;;;;5030494;28;20790;-41
2022/12/28 05:30:29;;;;;;;2.40;2.00;;;21.50;66.70;;;;;;5030430;28;20560;-40
2022/12/28 05:32:57;;;;;;;3.05;2.30;;;21.50;66.60;;;;;;5028166;28;20193;-41
2022/12/28 05:35:24;;;;;;;3.35;2.17;;;21.60;66.40;;;;;;5023469;28;20227;-42
2022/12/28 05:37:51;;;;;;;3.15;2.70;;;21.60;66.20;;;;;;5031668;28;20203;-40
2022/12/28 05:40:17;;;;;;;2.83;2.63;;;21.70;66.20;;;;;;5024457;28;20568;-40
2022/12/28 05:42:44;;;;;;;3.15;2.85;;;21.70;66.10;;;;;;5029613;28;21292;-41
2022/12/28 05:45:11;;;;;;;4.28;2.80;;;21.80;66.10;;;;;;5017472;28;20607;-41
2022/12/28 05:47:38;;;;;;;4.20;2.83;;;21.80;66.00;;;;;;5035108;28;20228;-40
2022/12/28 05:50:06;;;;;;;2.38;2.03;;;21.70;65.90;;;;;;5033584;28;20201;-41
2022/12/28 05:52:35;;;;;;;2.47;2.28;;;21.80;65.80;;;;;;5029336;28;20667;-40
2022/12/28 05:55:01;;;;;;;2.72;2.38;;;21.90;65.80;;;;;;5032339;28;20199;-39
2022/12/28 05:57:28;;;;;;;3.00;2.65;;;21.80;65.60;;;;;;5027954;28;20223;-40
2022/12/28 05:59:55;;;;;;;2.92;2.13;;;21.80;65.60;;;;;;5025235;28;20656;-39
2022/12/28 06:02:24;;;;;;;8.15;7.47;;;21.80;65.60;;;;;;5029421;28;20571;-40
2022/12/28 06:04:51;;;;;;;2.70;2.42;;;21.90;65.70;;;;;;5029462;28;20231;-40
2022/12/28 06:07:19;;;;;;;3.75;2.78;;;21.90;65.50;;;;;;5035953;28;20232;-40
2022/12/28 06:09:45;;;;;;;2.90;2.60;;;21.90;66.20;;;;;;5029631;28;20652;-40
2022/12/28 06:12:12;;;;;;;2.00;1.50;;;21.90;65.40;;;;;;5031337;28;20193;-40
2022/12/28 06:14:39;;;;;;;2.95;2.20;;;21.90;65.40;;;;;;5030925;28;20197;-40
2022/12/28 06:17:05;;;;;;;2.00;1.80;;;21.90;65.50;;;;;;5027492;28;20246;-41
2022/12/28 06:19:32;;;;;;;4.20;2.55;;;21.90;65.40;;;;;;5033798;28;20588;-40
2022/12/28 06:21:59;;;;;;;3.47;3.17;;;21.90;65.30;;;;;;5035485;28;20545;-41
2022/12/28 06:24:27;;;;;;;3.40;2.60;;;22.00;65.40;;;;;;5029513;28;20204;-40
2022/12/28 06:26:53;;;;;;;8.88;8.18;;;22.00;65.30;;;;;;5035074;28;20225;-40
2022/12/28 06:29:20;;;;;;;2.38;2.03;;;22.00;65.40;;;;;;5035755;28;20203;-40
2022/12/28 06:31:49;;;;;;;2.55;2.35;;;22.00;66.20;;;;;;5029785;28;20215;-40
2022/12/28 06:34:17;;;;;;;2.05;1.60;;;22.00;65.30;;;;;;5033158;28;20269;-40
2022/12/28 06:36:45;;;;;;;1.95;1.75;;;22.00;65.20;;;;;;5032957;28;20192;-41
2022/12/28 06:39:13;;;;;;;2.38;1.75;;;22.00;65.20;;;;;;5031787;28;20208;-41
2022/12/28 06:41:42;;;;;;;2.63;2.03;;;22.00;65.20;;;;;;5035246;28;20196;-40
2022/12/28 06:44:10;;;;;;;1.70;1.60;;;22.00;65.20;;;;;;5031784;28;20239;-40
2022/12/28 06:46:37;;;;;;;2.30;2.10;;;22.00;65.10;;;;;;5026534;28;20220;-42
2022/12/28 06:49:04;;;;;;;2.40;2.05;;;22.00;65.10;;;;;;5034158;28;20193;-40
2022/12/28 06:51:34;;;;;;;2.28;1.80;;;22.00;65.10;;;;;;5025167;28;20227;-41
2022/12/28 06:54:01;;;;;;;3.47;2.13;;;22.00;65.10;;;;;;5032502;28;20254;-40
2022/12/28 06:56:30;;;;;;;3.70;2.20;;;22.00;65.10;;;;;;5030257;28;20467;-41
2022/12/28 06:58:58;;;;;;;2.22;1.85;;;22.00;65.00;;;;;;5035667;28;20271;-40
2022/12/28 07:01:27;;;;;;;2.00;1.58;;;22.10;65.20;;;;;;5021334;28;20198;-42
2022/12/28 07:03:56;;;;;;;2.53;1.80;;;22.10;65.20;;;;;;5035749;28;20223;-41
2022/12/28 07:06:25;;;;;;;1.60;1.50;;;22.10;65.20;;;;;;5025311;28;20726;-40
2022/12/28 07:08:58;;;;;;;1.80;1.40;;;22.10;65.30;;;;;;5036923;28;20200;-41
2022/12/28 07:11:25;;;;;;;2.53;2.33;;;22.00;65.20;;;;;;5037344;28;20469;-41
2022/12/28 07:13:52;;;;;;;2.10;1.90;;;22.10;65.30;;;;;;5030544;28;20189;-41
2022/12/28 07:16:21;;;;;;;2.30;2.10;;;22.10;65.20;;;;;;5030202;28;20208;-40
2022/12/28 07:18:49;;;;;;;1.90;1.70;;;22.10;65.30;;;;;;5038031;28;20657;-41
2022/12/28 07:21:19;;;;;;;1.92;1.80;;;22.10;65.20;;;;;;5040780;28;20462;-41
2022/12/28 07:23:46;;;;;;;3.83;2.25;;;22.20;65.30;;;;;;5033027;28;20209;-41
2022/12/28 07:26:14;;;;;;;2.40;1.42;;;22.20;65.30;;;;;;5023219;28;20718;-40
2022/12/28 07:28:43;;;;;;;2.17;1.88;;;22.10;65.20;;;;;;5036740;28;20197;-40
2022/12/28 07:31:12;;;;;;;1.98;1.77;;;22.10;65.20;;;;;;5027388;28;20208;-40
2022/12/28 07:33:41;;;;;;;4.03;3.72;;;22.10;65.20;;;;;;5033372;28;20201;-40
2022/12/28 07:36:10;;;;;;;2.35;1.63;;;22.10;65.20;;;;;;5022003;28;20443;-41
2022/12/28 07:38:37;;;;;;;3.42;2.58;;;22.10;65.30;;;;;;5020668;28;20206;-40
2022/12/28 07:41:05;;;;;;;2.58;2.15;;;22.10;65.20;;;;;;5026411;28;20596;-40
2022/12/28 07:43:34;;;;;;;2.40;1.93;;;22.10;65.20;;;;;;5026576;28;20196;-41
2022/12/28 07:46:02;;;;;;;2.20;1.77;;;22.10;65.30;;;;;;5022837;28;20471;-40
2022/12/28 07:48:30;;;;;;;2.60;2.33;;;22.10;65.30;;;;;;5027839;28;20196;-41
2022/12/28 07:51:04;;;;;;;2.00;1.80;;;22.10;65.30;;;;;;5033303;28;20288;-40
2022/12/28 07:53:31;;;;;;;2.10;1.90;;;22.10;65.30;;;;;;5023699;28;20864;-40
2022/12/28 07:55:59;;;;;;;2.60;2.10;;;22.00;65.20;;;;;;5021828;28;20193;-40
2022/12/28 07:58:26;;;;;;;1.88;1.75;;;22.10;65.40;;;;;;5030583;28;20505;-40
2022/12/28 08:00:53;;;;;;;2.28;1.80;;;22.00;65.50;;;;;;5021685;28;20206;-40
2022/12/28 08:03:20;;;;;;;1.63;1.52;;;22.00;65.60;;;;;;5028816;28;20200;-41
2022/12/28 08:05:47;;;;;;;4.43;2.00;;;21.90;65.60;;;;;;5034020;28;20207;-41
2022/12/28 08:08:15;;;;;;;2.75;1.85;;;21.90;65.80;;;;;;5030325;28;20487;-40
2022/12/28 08:10:41;;;;;;;2.35;1.88;;;21.80;66.00;;;;;;5024018;28;20208;-40
2022/12/28 08:13:08;;;;;;;1.75;1.65;;;21.80;66.10;;;;;;5035507;28;20538;-40
2022/12/28 08:15:35;;;;;;;2.50;2.15;;;21.70;66.10;;;;;;5025215;28;20268;-41
2022/12/28 08:18:01;;;;;;;2.25;1.85;;;21.70;66.20;;;;;;5022564;28;20227;-40
2022/12/28 08:20:28;;;;;;;2.67;1.83;;;21.80;66.10;;;;;;5033296;28;20221;-40
2022/12/28 08:22:55;;;;;;;3.47;2.53;;;21.80;66.00;;;;;;5030009;28;20199;-39
2022/12/28 08:25:23;;;;;;;2.70;1.75;;;21.90;65.90;;;;;;5029413;28;20204;-40
2022/12/28 08:27:49;;;;;;;2.30;2.10;;;22.00;65.70;;;;;;5028663;28;20220;-40
2022/12/28 08:30:16;;;;;;;3.30;2.70;;;22.10;65.50;;;;;;5025699;28;20467;-40
2022/12/28 08:32:43;;;;;;;2.37;2.17;;;22.20;65.30;;;;;;5032475;28;20196;-40
2022/12/28 08:35:09;;;;;;;2.30;2.10;;;22.20;65.10;;;;;;5035204;28;20475;-40
2022/12/28 08:37:36;;;;;;;2.70;2.23;;;22.30;65.10;;;;;;5026265;28;20192;-41
2022/12/28 08:40:03;;;;;;;1.63;1.52;;;22.30;65.00;;;;;;5019383;28;20464;-41
2022/12/28 08:42:31;;;;;;;2.70;1.87;;;22.30;64.80;;;;;;5029100;28;20201;-42
2022/12/28 08:44:58;;;;;;;2.03;1.67;;;22.30;64.80;;;;;;5027734;28;20467;-40
2022/12/28 08:47:25;;;;;;;3.50;2.07;;;22.30;64.80;;;;;;5024375;28;20579;-39
2022/12/28 08:49:51;;;;;;;1.97;1.77;;;22.30;64.90;;;;;;5029704;28;20482;-41
2022/12/28 08:52:18;;;;;;;2.80;2.10;;;22.30;65.00;;;;;;5028692;28;20462;-39
2022/12/28 08:54:45;;;;;;;4.00;2.93;;;22.20;65.20;;;;;;5023220;28;20204;-39
2022/12/28 08:57:11;;;;;;;3.03;1.88;;;22.10;65.90;;;;;;5025704;28;22385;-41
2022/12/28 08:59:39;;;;;;;2.53;2.33;;;22.00;66.10;;;;;;5027234;28;20208;-40
2022/12/28 09:02:06;;;;;;;2.80;2.47;;;22.00;66.40;;;;;;5030391;28;20464;-40
2022/12/28 09:04:33;;;;;;;2.30;2.10;;;22.00;66.90;;;;;;5031292;28;20677;-40
2022/12/28 09:06:59;;;;;;;4.10;2.92;;;22.00;66.50;;;;;;5034893;28;20591;-40
2022/12/28 09:09:26;;;;;;;2.80;2.60;;;22.00;66.50;;;;;;5031207;28;20196;-40
2022/12/28 09:11:53;;;;;;;3.40;2.58;;;22.00;66.60;;;;;;5016843;28;20461;-39
2022/12/28 09:14:19;;;;;;;5.73;5.20;;;22.00;66.70;;;;;;5025171;28;20557;-40
2022/12/28 09:16:47;;;;;;;5.07;2.83;;;21.70;66.50;;;;;;5015696;28;20473;-40
2022/12/28 09:19:15;;;;;;;3.05;2.80;;;21.50;66.50;;;;;;5017821;28;20213;-40
2022/12/28 09:21:47;;;;;;;5.27;3.03;;;21.40;66.50;;;;;;5019172;28;20445;-40
2022/12/28 09:24:14;;;;;;;5.60;5.25;;;21.40;66.20;;;;;;5016512;28;20906;-41
2022/12/28 09:26:41;;;;;;;2.35;2.15;;;21.40;66.20;;;;;;5018320;28;20430;-40
2022/12/28 09:29:11;;;;;;;2.72;1.83;;;21.40;66.00;;;;;;5022492;28;20193;-40
2022/12/28 09:31:39;;;;;;;3.67;2.13;;;21.40;66.00;;;;;;5014444;28;20204;-40
2022/12/28 09:34:10;;;;;;;3.35;2.28;;;21.40;65.80;;;;;;5012299;28;20200;-39
2022/12/28 09:36:39;;;;;;;2.17;1.90;;;21.40;65.60;;;;;;5020537;28;20205;-40
2022/12/28 09:39:07;;;;;;;1.65;1.50;;;21.40;65.50;;;;;;5021336;28;20455;-40
2022/12/28 09:41:38;;;;;;;2.72;2.53;;;21.40;65.50;;;;;;5007773;28;20879;-40
2022/12/28 09:44:19;;;;;;;2.80;2.45;;;21.40;65.40;;;;;;5026532;28;20210;-41
2022/12/28 09:46:51;;;;;;;2.30;2.10;;;21.50;65.40;;;;;;5020674;28;20213;-40
2022/12/28 09:49:24;;;;;;;1.70;1.60;;;21.50;65.30;;;;;;5022501;28;20205;-40
2022/12/28 09:51:54;;;;;;;2.47;1.77;;;21.50;65.30;;;;;;5016148;28;20197;-41
2022/12/28 09:54:21;;;;;;;2.60;2.15;;;21.50;65.10;;;;;;5012839;28;20217;-41
2022/12/28 09:56:48;;;;;;;1.60;1.50;;;21.50;65.10;;;;;;5019334;28;20206;-40
2022/12/28 09:59:18;;;;;;;3.40;3.10;;;21.50;65.10;;;;;;5024777;28;20203;-41
2022/12/28 10:01:52;;;;;;;9.02;8.45;;;21.50;65.10;;;;;;5022327;28;20558;-40
2022/12/28 10:04:20;;;;;;;7.22;6.70;;;21.50;65.00;;;;;;5028616;28;20278;-40
2022/12/28 10:06:47;;;;;;;3.10;1.95;;;21.40;64.80;;;;;;5029187;28;20191;-40
2022/12/28 10:09:19;;;;;;;1.67;1.58;;;21.50;65.10;;;;;;5024228;28;20200;-40
2022/12/28 10:11:46;;;;;;;3.20;2.20;;;21.70;64.90;;;;;;5022880;28;20196;-40
2022/12/28 10:14:19;;;;;;;2.75;1.52;;;21.90;64.60;;;;;;5025145;28;20583;-42
2022/12/28 10:16:46;;;;;;;1.50;1.40;;;22.00;64.30;;;;;;5032706;28;20232;-40
2022/12/28 10:19:17;;;;;;;2.10;1.70;;;22.00;64.20;;;;;;5026959;28;20704;-42
2022/12/28 10:21:46;;;;;;;2.15;1.95;;;22.10;64.30;;;;;;5019879;28;20205;-41
2022/12/28 10:27:35;;;;;;;2.63;2.00;;;22.10;64.60;;;;;;5023435;28;20303;-42
2022/12/28 10:30:06;;;;;;;2.17;1.75;;;22.10;64.70;;;;;;5034146;28;20985;-40
2022/12/28 10:32:49;;;;;;;2.17;1.73;;;22.00;64.70;;;;;;5029501;28;20204;-42
2022/12/28 10:35:23;;;;;;;2.08;1.88;;;22.00;65.00;;;;;;5019488;28;20292;-42
2022/12/28 10:37:56;;;;;;;1.50;1.40;;;21.90;65.40;;;;;;5016592;28;20201;-41
2022/12/28 10:40:27;;;;;;;2.53;1.83;;;21.90;65.90;;;;;;5029209;28;20600;-41
2022/12/28 10:42:55;;;;;;;1.95;1.75;;;21.90;66.00;;;;;;5018047;28;20212;-41
2022/12/28 10:45:27;;;;;;;2.78;1.52;;;21.90;66.10;;;;;;5022195;28;20209;-41
2022/12/28 10:47:56;;;;;;;3.08;2.45;;;21.90;66.20;;;;;;5021431;28;20235;-41
2022/12/28 10:50:41;;;;;;;1.40;1.30;;;21.90;66.30;;;;;;5022985;28;20221;-42
2022/12/28 10:53:19;;;;;;;1.38;1.27;;;21.90;66.50;;;;;;5025731;28;20572;-41
2022/12/28 10:55:46;;;;;;;1.50;1.40;;;22.00;66.40;;;;;;5032143;28;20204;-41
2022/12/28 10:58:17;;;;;;;2.47;1.70;;;22.00;66.10;;;;;;5019275;28;20467;-41
2022/12/28 11:00:52;;;;;;;2.60;2.40;;;22.00;65.90;;;;;;5020072;28;20204;-41
2022/12/28 11:03:24;;;;;;;1.45;1.35;;;22.00;65.90;;;;;;5031396;28;20462;-41
2022/12/28 11:05:50;;;;;;;2.58;2.38;;;22.00;65.80;;;;;;5021613;28;20200;-41
2022/12/28 11:08:18;;;;;;;3.03;1.88;;;22.00;65.70;;;;;;5021356;28;20217;-41
2022/12/28 11:10:45;;;;;;;3.65;1.95;;;22.00;65.70;;;;;;5027672;28;20196;-41
2022/12/28 11:13:19;;;;;;;2.65;2.45;;;22.00;65.60;;;;;;5028076;28;20203;-41
2022/12/28 11:15:46;;;;;;;3.47;2.40;;;22.00;65.50;;;;;;5021955;28;20197;-41
2022/12/28 11:18:16;;;;;;;2.33;2.13;;;22.00;65.40;;;;;;5026665;28;20197;-41
2022/12/28 11:20:46;;;;;;;1.73;1.48;;;22.00;65.40;;;;;;5028714;28;20479;-41
2022/12/28 11:23:19;;;;;;;2.67;2.47;;;22.10;65.40;;;;;;5021115;28;20203;-41
2022/12/28 11:25:46;;;;;;;2.97;2.77;;;22.10;65.40;;;;;;5032612;28;20199;-41
2022/12/28 11:28:16;;;;;;;3.87;2.70;;;22.10;65.30;;;;;;5024505;28;20484;-41
2022/12/28 11:30:43;;;;;;;3.55;3.25;;;22.10;65.20;;;;;;5024137;28;20466;-41
2022/12/28 11:33:31;;;;;;;2.87;2.23;;;22.10;65.20;;;;;;5032696;28;20201;-41
2022/12/28 11:35:58;;;;;;;22.58;21.63;;;22.10;65.20;;;;;;5025622;28;20494;-41
2022/12/28 11:38:41;;;;;;;1.83;1.63;;;22.10;65.10;;;;;;5027267;28;20204;-41
2022/12/28 11:41:10;;;;;;;3.37;2.57;;;22.20;65.20;;;;;;5016306;28;22281;-41
2022/12/28 11:43:49;;;;;;;1.95;1.77;;;22.10;65.00;;;;;;5021794;28;20460;-41
2022/12/28 11:46:41;;;;;;;1.87;1.60;;;22.20;65.10;;;;;;5034280;28;20200;-41
2022/12/28 11:49:26;;;;;;;1.45;1.35;;;22.20;65.10;;;;;;5028262;28;20486;-41
2022/12/28 11:52:45;;;;;;;3.53;3.33;;;22.20;65.90;;;;;;5016996;28;20299;-41
2022/12/28 11:55:42;;;;;;;2.42;1.90;;;22.20;65.00;;;;;;5018701;28;20456;-41
2022/12/28 11:58:43;;;;;;;1.42;1.33;;;22.20;65.00;;;;;;5019992;28;20314;-41
2022/12/28 12:01:35;;;;;;;1.50;1.30;;;22.20;65.00;;;;;;5025645;28;20208;-42
2022/12/28 12:04:26;;;;;;;1.40;1.00;;;22.20;65.20;;;;;;5029541;28;20464;-46
2022/12/28 12:07:44;;;;;;;1.90;1.77;;;22.20;65.40;;;;;;5020682;28;20470;-47
2022/12/28 12:10:40;;;;;;;1.50;1.40;;;22.30;65.80;;;;;;5024571;28;20452;-45
2022/12/28 12:13:38;;;;;;;2.10;1.40;;;22.40;66.00;;;;;;5023811;28;20835;-45
2022/12/28 12:16:15;;;;;;;1.87;1.27;;;22.50;65.80;;;;;;5030187;28;20459;-46
2022/12/28 12:18:46;;;;;;;2.45;2.05;;;22.50;65.80;;;;;;5027239;28;20445;-46
2022/12/28 12:21:28;;;;;;;1.73;1.63;;;22.60;65.90;;;;;;5024623;28;20196;-47
2022/12/28 12:24:03;;;;;;;2.40;2.20;;;22.60;65.90;;;;;;5017245;28;21050;-46
2022/12/28 12:26:36;;;;;;;2.40;2.20;;;22.60;65.80;;;;;;5017187;28;20477;-47
2022/12/28 12:29:07;;;;;;;2.70;2.50;;;22.40;66.70;;;;;;5023148;28;20570;-46
2022/12/28 12:31:41;;;;;;;1.40;1.17;;;22.30;67.30;;;;;;5026059;28;20200;-46
2022/12/28 12:34:15;;;;;;;2.95;2.42;;;22.20;67.40;;;;;;5030332;28;20494;-46
2022/12/28 12:37:20;;;;;;;2.17;2.05;;;22.20;67.40;;;;;;5023335;28;20204;-46
2022/12/28 12:40:15;;;;;;;2.10;1.67;;;22.20;67.50;;;;;;5021003;28;20191;-46
2022/12/28 12:42:56;;;;;;;3.03;2.83;;;22.20;67.60;;;;;;5017204;28;20741;-46
2022/12/28 12:45:32;;;;;;;3.47;3.17;;;22.20;68.60;;;;;;5022784;28;20215;-47
2022/12/28 12:48:17;;;;;;;1.67;1.42;;;22.20;67.90;;;;;;5036708;28;20227;-46
2022/12/28 12:51:05;;;;;;;2.22;2.03;;;22.20;67.90;;;;;;5024803;28;20204;-46
2022/12/28 12:53:52;;;;;;;2.63;2.33;;;22.20;67.90;;;;;;5023526;28;20560;-46
2022/12/28 12:56:35;;;;;;;3.35;3.05;;;22.20;68.10;;;;;;5021981;28;20640;-47
2022/12/28 12:59:27;;;;;;;4.07;3.77;;;22.20;68.40;;;;;;5016579;28;20681;-46
2022/12/28 13:02:03;;;;;;;3.70;3.40;;;22.30;68.10;;;;;;5020288;28;20463;-47
2022/12/28 13:04:33;;;;;;;2.70;2.50;;;22.30;67.90;;;;;;5023062;28;20199;-46
2022/12/28 13:07:05;;;;;;;2.40;1.98;;;22.40;67.80;;;;;;5029356;28;20193;-46
2022/12/28 13:09:34;;;;;;;2.73;2.53;;;22.50;67.70;;;;;;5028074;28;20220;-46
2022/12/28 13:12:02;;;;;;;2.40;2.20;;;22.60;67.60;;;;;;5029090;28;20491;-46
2022/12/28 13:14:29;;;;;;;2.55;2.20;;;22.60;67.80;;;;;;5028888;28;20839;-46
2022/12/28 13:16:58;;;;;;;3.97;2.70;;;22.70;67.50;;;;;;5029693;28;20205;-46
2022/12/28 13:19:27;;;;;;;71.93;69.10;;;22.80;67.40;;;;;;5032829;28;20309;-46
2022/12/28 13:21:55;;;;;;;6.03;5.53;;;22.80;67.20;;;;;;5027279;28;20546;-47
2022/12/28 13:24:24;;;;;;;138.13;133.03;;;22.80;67.20;;;;;;5027907;28;20204;-46
2022/12/28 13:26:53;;;;;;;2.40;2.20;;;22.80;67.30;;;;;;5033098;28;20517;-45
2022/12/28 13:29:22;;;;;;;1.83;1.70;;;22.70;67.60;;;;;;5026612;28;20218;-45
2022/12/28 13:31:50;;;;;;;4.00;2.80;;;22.60;68.00;;;;;;5021021;28;20457;-50